• Join FlightAware (Why Join?)
  • Login
  • US Flag 
09:54PM EDT


 

Airport Tracker/Info


-or-


 

Live Flight TrackerFlight Track Log ✈ UAL5832 ✈ 15-May-2013 ✈ KORD - KABE

Flight Track Log - Related Links

Times and Time Zones

All times are in EDT time to prevent confusion due to time zone crossing. See the UAL5832 flight status page for this flight to view local times or setup timezone preferences in your user account.

Time Position Orientation Groundspeed Altitude Reporting Facility
EDT Latitude Longitude Course Direction KTS MPH feet Rate Location/Type
10:06PM 41.9833 -87.8667 95° East 178 205 1,600  Level Chicago TRACON
10:07PM 41.9833 -87.8000 90° East 243 280 3,600 2,340 Climbing Chicago TRACON
10:08PM 41.9833 -87.6833 90° East 284 327 6,100 2,340 Climbing Chicago TRACON
10:09PM 41.9833 -87.6000 90° East 306 352 8,100 2,100 Climbing Chicago TRACON
10:11PM 41.9650 -87.3872 97° East 326 375 12,000 2,100 Climbing Chicago Center
10:12PM 41.9393 -87.2166 95° East  Level FlightAware Approximate
10:12PM 41.9578 -87.2592 94° East 342 394 14,300  Level Chicago Center
10:13PM 41.9481 -87.0992 95° East 357 411 16,500 2,040 Climbing Chicago Center
10:14PM 41.9464 -86.9619 91° East 369 425 18,500 1,800 Climbing Chicago Center
10:15PM 41.9483 -86.8186 89° East 382 440 20,200 1,680 Climbing Chicago Center
10:16PM 41.9508 -86.6853 89° East 388 447 22,000 1,620 Climbing Chicago Center
10:17PM 41.9519 -86.5358 89° East 398 458 23,600 1,560 Climbing Chicago Center
10:18PM 41.9533 -86.3806 89° East 415 478 25,200 1,560 Climbing Chicago Center
10:19PM 41.9531 -86.1936 90° East 418 481 26,800 1,200 Climbing Chicago Center
10:20PM 41.9392 -86.0336 97° East 430 495 27,700 1,020 Climbing Chicago Center
10:21PM 41.9233 -85.8725 97° East 434 499 28,900 600 Climbing Chicago Center
10:22PM 41.9003 -85.7092 101° East 445 512 29,000  Climbing Chicago Center
10:23PM 41.8503 -85.5600 114° Southeast 438 504 29,000  Level Chicago Center
10:24PM 41.7992 -85.4056 114° Southeast 445 512 29,000  Level Chicago Center
10:25PM 41.7469 -85.2483 114° Southeast 451 519 29,000  Level Chicago Center
10:26PM 41.6981 -85.0972 113° Southeast 467 537 29,000  Level Cleveland Center
10:27PM 41.6700 -84.9564 105° East 443 510 29,000  Level Cleveland Center
10:28PM 41.6658 -84.7919 92° East 426 490 29,000  Level Cleveland Center
10:29PM 41.6550 -84.6328 95° East 432 497 29,000  Level Cleveland Center
10:30PM 41.6458 -84.4711 94° East 432 497 29,000  Level Cleveland Center
10:31PM 41.6344 -84.3119 95° East 427 491 29,000  Level Cleveland Center
10:32PM 41.6186 -84.1553 98° East 427 491 29,000  Level Cleveland Center
10:33PM 41.6089 -83.9964 95° East 427 491 29,000  Level Cleveland Center
10:34PM 41.5947 -83.8403 97° East 427 491 29,000  Level Cleveland Center
10:35PM 41.5825 -83.6814 96° East 427 491 29,000  Level Cleveland Center
10:36PM 41.5719 -83.5253 95° East 427 491 29,000  Level Cleveland Center
10:37PM 41.5592 -83.3639 96° East 427 491 29,000  Level Cleveland Center
10:38PM 41.5464 -83.2050 96° East 427 491 29,000  Level Cleveland Center
10:39PM 41.5333 -83.0436 96° East 427 491 29,000  Level Cleveland Center
10:40PM 41.5197 -82.8878 97° East 427 491 29,000  Level Cleveland Center
10:41PM 41.5125 -82.7239 93° East 427 491 29,000  Level Cleveland Center
10:42PM 41.5031 -82.5656 95° East 427 491 29,000  Level Cleveland Center
10:43PM 41.4953 -82.4017 94° East 427 491 29,000  Level Cleveland Center
10:44PM 41.4872 -82.2436 94° East 437 503 29,000  Level Cleveland Center
10:45PM 41.4769 -82.0769 95° East 437 503 29,000  Level Cleveland Center
10:46PM 41.4683 -81.9328 95° East 437 503 29,000  Level Cleveland Center
10:47PM 41.4578 -81.7689 95° East 442 509 29,000  Level Cleveland Center
10:48PM 41.4489 -81.6053 94° East 447 514 29,000  Level Cleveland Center
10:49PM 41.4356 -81.4306 96° East 442 509 29,000  Level Cleveland Center
10:50PM 41.4242 -81.2672 95° East 442 509 29,000  Level Cleveland Center
10:51PM 41.4147 -81.1064 94° East 442 509 29,000  Level Cleveland Center
10:52PM 41.4028 -80.9458 96° East 442 509 29,000  Level Cleveland Center
10:53PM 41.3908 -80.7825 96° East 442 509 29,000  Level Cleveland Center
10:54PM 41.3806 -80.6219 95° East 442 509 29,000  Level Cleveland Center
10:55PM 41.3678 -80.4753 97° East 442 509 29,000  Level Cleveland Center
10:56PM 41.3572 -80.3119 95° East 442 509 29,000  Level Cleveland Center
10:57PM 41.3464 -80.1489 95° East 442 509 29,000  Level Cleveland Center
10:58PM 41.3331 -79.9719 96° East 442 509 29,000  Level Cleveland Center
10:59PM 41.3197 -79.8283 97° East 442 509 29,000  Level Cleveland Center
11:00PM 41.3058 -79.6683 97° East 442 509 29,000  Level Cleveland Center
11:01PM 41.2942 -79.5025 95° East 442 509 29,000  Level Cleveland Center
11:02PM 41.2800 -79.3453 97° East 442 509 29,000  Level Cleveland Center
11:03PM 41.2656 -79.1825 97° East 442 509 29,000  Level Cleveland Center
11:04PM 41.2531 -79.0200 96° East 442 509 29,000  Level Cleveland Center
11:05PM 41.2403 -78.8572 96° East 442 509 29,000 -60 Level Cleveland Center
11:07PM 41.2189 -78.6081 96° East 447 514 28,900 -1,020 Descending New York Center
11:08PM 41.2019 -78.4544 98° East 442 509 26,400 -2,040 Descending New York Center
11:09PM 41.1842 -78.2758 97° East 436 502 25,000 -720 Descending New York Center
11:10PM 41.1492 -78.1342 108° East 420 483 25,000  Level New York Center
11:11PM 41.1142 -77.9925 108° East 407 468 25,000 -360 Level New York Center
11:12PM 41.0811 -77.8486 107° East 402 463 24,300 -720 Descending New York Center
11:13PM 41.0458 -77.7044 108° East 402 463 23,600 -720 Descending New York Center
11:14PM 41.0103 -77.5633 108° East 402 463 22,900 -720 Descending New York Center
11:15PM 40.9764 -77.4253 108° East 402 463 22,200 -660 Descending New York Center
11:16PM 40.9439 -77.3011 109° East 397 457 21,600 -600 Descending New York Center
11:17PM 40.9097 -77.1606 108° East 397 457 21,000 -660 Descending New York Center
11:18PM 40.8733 -77.0253 110° East 397 457 20,400 -660 Descending New York Center
11:19PM 40.8408 -76.8881 107° East 397 457 19,800 -720 Descending New York Center
11:20PM 40.8044 -76.7422 108° East 397 457 19,000 -780 Descending New York Center
11:21PM 40.7717 -76.6078 108° East 397 457 18,300 -1,140 Descending New York Center
11:22PM 40.7361 -76.4786 110° East 387 445 16,800 -1,260 Descending New York Center
11:23PM 40.7028 -76.3472 108° East 377 434 15,800 -1,380 Descending New York Center
11:24PM 40.6694 -76.2158 108° East 384 442 14,200 -1,860 Descending New York Center
11:25PM 40.6375 -76.0931 109° East 368 423 12,200 -2,040 Descending New York Center
11:26PM 40.6131 -75.9844 106° East 354 407 10,200 -2,040 Descending New York Center
11:27PM 40.6039 -75.8633 96° East 338 389 8,100 -2,400 Descending New York Center
11:28PM 40.5967 -75.7400 94° East 320 368 5,400 -2,220 Descending New York Center
11:29PM 40.5906 -75.6383 94° East 295 339 3,800 -1,560 Descending New York Center
11:30PM 40.5878 -75.5481 92° East 262 302 2,400 -1,200 Descending New York Center
11:31PM 40.6147 -75.5006 53° Northeast 195 224 1,400 -600 Descending New York Center
11:32PM 40.6278 -75.4386 74° East 188 216 1,200 3,780 Descending New York Center
11:33PM 40.6408 -75.3711 76° East 188 216 9,000 3,960 Climbing New York Center
11:34PM 40.6539 -75.3036 76° East 188 216 9,000  Level New York Center
11:35PM 40.6667 -75.2361 76° East 188 216 9,000  Level New York Center
11:36PM 40.6694 -75.2225 75° East 188 216 9,000  Level New York Center
11:37PM 40.6694 -75.2225 360° North 188 216 9,000  Level New York Center